sensor_id;sensor_type;location;lat;lon;timestamp;temperature;humidity
7341;DHT22;6870;50.944;6.932;2023-12-07T00:00:53;18.20;43.10
7341;DHT22;6870;50.944;6.932;2023-12-07T00:03:21;18.50;43.60
7341;DHT22;6870;50.944;6.932;2023-12-07T00:05:49;18.30;43.70
7341;DHT22;6870;50.944;6.932;2023-12-07T00:08:17;18.20;43.00
7341;DHT22;6870;50.944;6.932;2023-12-07T00:10:45;18.10;44.00
7341;DHT22;6870;50.944;6.932;2023-12-07T00:13:15;18.00;44.10
7341;DHT22;6870;50.944;6.932;2023-12-07T00:15:43;18.40;44.60
7341;DHT22;6870;50.944;6.932;2023-12-07T00:18:11;18.50;44.80
7341;DHT22;6870;50.944;6.932;2023-12-07T00:20:39;18.20;44.70
7341;DHT22;6870;50.944;6.932;2023-12-07T00:23:07;18.40;45.00
7341;DHT22;6870;50.944;6.932;2023-12-07T00:25:48;18.50;44.40
7341;DHT22;6870;50.944;6.932;2023-12-07T00:28:17;18.10;43.10
7341;DHT22;6870;50.944;6.932;2023-12-07T00:30:45;18.20;43.50
7341;DHT22;6870;50.944;6.932;2023-12-07T00:33:13;18.40;44.20
7341;DHT22;6870;50.944;6.932;2023-12-07T00:35:42;18.40;43.90
7341;DHT22;6870;50.944;6.932;2023-12-07T00:38:10;18.70;45.40
7341;DHT22;6870;50.944;6.932;2023-12-07T00:40:38;18.50;45.10
7341;DHT22;6870;50.944;6.932;2023-12-07T00:43:07;18.80;45.40
7341;DHT22;6870;50.944;6.932;2023-12-07T00:45:36;18.40;44.00
7341;DHT22;6870;50.944;6.932;2023-12-07T00:48:05;18.60;45.20
7341;DHT22;6870;50.944;6.932;2023-12-07T00:50:33;18.50;44.40
7341;DHT22;6870;50.944;6.932;2023-12-07T00:53:01;18.80;45.40
7341;DHT22;6870;50.944;6.932;2023-12-07T00:55:29;18.50;43.50
7341;DHT22;6870;50.944;6.932;2023-12-07T00:57:58;18.90;45.50
7341;DHT22;6870;50.944;6.932;2023-12-07T01:00:36;18.80;45.10
7341;DHT22;6870;50.944;6.932;2023-12-07T01:03:04;18.80;43.60
7341;DHT22;6870;50.944;6.932;2023-12-07T01:05:32;18.60;43.70
7341;DHT22;6870;50.944;6.932;2023-12-07T01:08:01;18.90;44.50
7341;DHT22;6870;50.944;6.932;2023-12-07T01:10:28;18.60;44.90
7341;DHT22;6870;50.944;6.932;2023-12-07T01:12:56;19.00;45.20
7341;DHT22;6870;50.944;6.932;2023-12-07T01:15:24;18.90;45.10
7341;DHT22;6870;50.944;6.932;2023-12-07T01:17:54;18.70;44.90
7341;DHT22;6870;50.944;6.932;2023-12-07T01:20:22;18.90;44.40
7341;DHT22;6870;50.944;6.932;2023-12-07T01:22:50;18.80;43.70
7341;DHT22;6870;50.944;6.932;2023-12-07T01:25:19;19.10;43.80
7341;DHT22;6870;50.944;6.932;2023-12-07T01:27:49;19.10;45.00
7341;DHT22;6870;50.944;6.932;2023-12-07T01:30:17;19.00;44.70
7341;DHT22;6870;50.944;6.932;2023-12-07T01:32:45;19.10;43.80
7341;DHT22;6870;50.944;6.932;2023-12-07T01:35:15;18.80;43.70
7341;DHT22;6870;50.944;6.932;2023-12-07T01:37:43;19.10;44.70
7341;DHT22;6870;50.944;6.932;2023-12-07T01:40:12;19.10;43.90
7341;DHT22;6870;50.944;6.932;2023-12-07T01:42:49;19.10;44.00
7341;DHT22;6870;50.944;6.932;2023-12-07T01:45:18;19.00;44.50
7341;DHT22;6870;50.944;6.932;2023-12-07T01:47:47;19.10;44.50
7341;DHT22;6870;50.944;6.932;2023-12-07T01:50:19;18.90;43.60
7341;DHT22;6870;50.944;6.932;2023-12-07T01:52:54;19.10;44.30
7341;DHT22;6870;50.944;6.932;2023-12-07T01:55:25;19.20;44.50
7341;DHT22;6870;50.944;6.932;2023-12-07T01:57:55;19.00;44.20
7341;DHT22;6870;50.944;6.932;2023-12-07T02:00:23;18.90;44.10
7341;DHT22;6870;50.944;6.932;2023-12-07T02:02:51;19.10;44.30
7341;DHT22;6870;50.944;6.932;2023-12-07T02:05:21;19.00;43.80
7341;DHT22;6870;50.944;6.932;2023-12-07T02:07:50;19.20;44.30
7341;DHT22;6870;50.944;6.932;2023-12-07T02:10:19;18.70;43.60
7341;DHT22;6870;50.944;6.932;2023-12-07T02:12:47;19.10;44.20
7341;DHT22;6870;50.944;6.932;2023-12-07T02:15:19;19.20;43.90
7341;DHT22;6870;50.944;6.932;2023-12-07T02:17:52;19.10;44.20
7341;DHT22;6870;50.944;6.932;2023-12-07T02:20:28;19.10;44.20
7341;DHT22;6870;50.944;6.932;2023-12-07T02:23:01;19.20;44.20
7341;DHT22;6870;50.944;6.932;2023-12-07T02:25:36;19.30;44.20
7341;DHT22;6870;50.944;6.932;2023-12-07T02:28:06;19.10;44.00
7341;DHT22;6870;50.944;6.932;2023-12-07T02:30:34;19.00;43.70
7341;DHT22;6870;50.944;6.932;2023-12-07T02:33:02;19.20;43.90
7341;DHT22;6870;50.944;6.932;2023-12-07T02:35:32;18.90;43.80
7341;DHT22;6870;50.944;6.932;2023-12-07T02:38:02;19.00;43.80
7341;DHT22;6870;50.944;6.932;2023-12-07T02:40:31;18.80;43.50
7341;DHT22;6870;50.944;6.932;2023-12-07T02:42:59;19.10;43.90
7341;DHT22;6870;50.944;6.932;2023-12-07T02:45:29;19.20;43.90
7341;DHT22;6870;50.944;6.932;2023-12-07T02:48:00;19.20;43.90
7341;DHT22;6870;50.944;6.932;2023-12-07T02:50:29;19.20;43.80
7341;DHT22;6870;50.944;6.932;2023-12-07T02:52:57;19.20;43.90
7341;DHT22;6870;50.944;6.932;2023-12-07T02:55:25;19.10;43.90
7341;DHT22;6870;50.944;6.932;2023-12-07T02:57:53;19.00;43.70
7341;DHT22;6870;50.944;6.932;2023-12-07T03:00:21;19.10;43.80
7341;DHT22;6870;50.944;6.932;2023-12-07T03:02:50;19.10;43.90
7341;DHT22;6870;50.944;6.932;2023-12-07T03:05:18;19.10;43.80
7341;DHT22;6870;50.944;6.932;2023-12-07T03:07:49;19.30;44.00
7341;DHT22;6870;50.944;6.932;2023-12-07T03:10:17;19.20;44.00
7341;DHT22;6870;50.944;6.932;2023-12-07T03:12:48;19.10;44.10
7341;DHT22;6870;50.944;6.932;2023-12-07T03:15:16;19.00;43.90
7341;DHT22;6870;50.944;6.932;2023-12-07T03:17:44;19.20;44.20
7341;DHT22;6870;50.944;6.932;2023-12-07T03:20:14;19.00;44.00
7341;DHT22;6870;50.944;6.932;2023-12-07T03:22:42;19.20;44.00
7341;DHT22;6870;50.944;6.932;2023-12-07T03:25:11;19.20;44.00
7341;DHT22;6870;50.944;6.932;2023-12-07T03:27:39;18.70;43.70
7341;DHT22;6870;50.944;6.932;2023-12-07T03:30:08;19.00;43.90
7341;DHT22;6870;50.944;6.932;2023-12-07T03:32:37;19.00;43.90
7341;DHT22;6870;50.944;6.932;2023-12-07T03:35:05;19.30;44.10
7341;DHT22;6870;50.944;6.932;2023-12-07T03:37:36;19.20;44.00
7341;DHT22;6870;50.944;6.932;2023-12-07T03:40:05;18.90;43.70
7341;DHT22;6870;50.944;6.932;2023-12-07T03:42:34;18.90;43.70
7341;DHT22;6870;50.944;6.932;2023-12-07T03:45:22;19.30;44.00
7341;DHT22;6870;50.944;6.932;2023-12-07T03:47:50;19.10;43.80
7341;DHT22;6870;50.944;6.932;2023-12-07T03:50:18;18.80;43.60
7341;DHT22;6870;50.944;6.932;2023-12-07T03:52:47;19.20;43.90
7341;DHT22;6870;50.944;6.932;2023-12-07T03:55:16;19.20;43.90
7341;DHT22;6870;50.944;6.932;2023-12-07T03:57:44;19.20;43.80
7341;DHT22;6870;50.944;6.932;2023-12-07T04:00:12;19.10;43.70
7341;DHT22;6870;50.944;6.932;2023-12-07T04:02:41;19.20;43.70
7341;DHT22;6870;50.944;6.932;2023-12-07T04:05:09;19.10;43.60
7341;DHT22;6870;50.944;6.932;2023-12-07T04:07:39;19.10;43.50
7341;DHT22;6870;50.944;6.932;2023-12-07T04:10:09;19.40;43.60
7341;DHT22;6870;50.944;6.932;2023-12-07T04:12:38;19.30;43.50
7341;DHT22;6870;50.944;6.932;2023-12-07T04:15:07;19.30;43.30
7341;DHT22;6870;50.944;6.932;2023-12-07T04:17:42;19.10;43.20
7341;DHT22;6870;50.944;6.932;2023-12-07T04:20:11;19.30;43.10
7341;DHT22;6870;50.944;6.932;2023-12-07T04:22:39;19.20;42.80
7341;DHT22;6870;50.944;6.932;2023-12-07T04:25:09;18.90;42.90
7341;DHT22;6870;50.944;6.932;2023-12-07T04:27:37;19.60;43.30
7341;DHT22;6870;50.944;6.932;2023-12-07T04:30:06;19.40;43.30
7341;DHT22;6870;50.944;6.932;2023-12-07T04:32:35;19.10;42.90
7341;DHT22;6870;50.944;6.932;2023-12-07T04:35:03;19.50;43.00
7341;DHT22;6870;50.944;6.932;2023-12-07T04:37:33;19.10;42.70
7341;DHT22;6870;50.944;6.932;2023-12-07T04:40:01;19.50;43.00
7341;DHT22;6870;50.944;6.932;2023-12-07T04:42:32;19.50;42.90
7341;DHT22;6870;50.944;6.932;2023-12-07T04:45:01;19.30;42.90
7341;DHT22;6870;50.944;6.932;2023-12-07T04:47:29;19.30;43.00
7341;DHT22;6870;50.944;6.932;2023-12-07T04:49:57;19.10;42.60
7341;DHT22;6870;50.944;6.932;2023-12-07T04:52:25;19.20;42.80
7341;DHT22;6870;50.944;6.932;2023-12-07T04:54:53;19.50;43.20
7341;DHT22;6870;50.944;6.932;2023-12-07T04:57:21;19.40;42.80
7341;DHT22;6870;50.944;6.932;2023-12-07T04:59:51;19.40;42.50
7341;DHT22;6870;50.944;6.932;2023-12-07T05:02:19;19.40;42.80
7341;DHT22;6870;50.944;6.932;2023-12-07T05:04:47;19.00;42.10
7341;DHT22;6870;50.944;6.932;2023-12-07T05:07:15;19.50;42.40
7341;DHT22;6870;50.944;6.932;2023-12-07T05:09:43;19.50;42.20
7341;DHT22;6870;50.944;6.932;2023-12-07T05:12:12;19.30;42.10
7341;DHT22;6870;50.944;6.932;2023-12-07T05:14:40;19.90;42.40
7341;DHT22;6870;50.944;6.932;2023-12-07T05:17:09;19.60;42.30
7341;DHT22;6870;50.944;6.932;2023-12-07T05:19:37;19.70;42.00
7341;DHT22;6870;50.944;6.932;2023-12-07T05:22:08;19.60;41.80
7341;DHT22;6870;50.944;6.932;2023-12-07T05:24:36;19.80;41.90
7341;DHT22;6870;50.944;6.932;2023-12-07T05:27:04;19.80;41.40
7341;DHT22;6870;50.944;6.932;2023-12-07T05:29:33;19.60;41.50
7341;DHT22;6870;50.944;6.932;2023-12-07T05:32:01;19.80;41.50
7341;DHT22;6870;50.944;6.932;2023-12-07T05:34:30;19.70;41.00
7341;DHT22;6870;50.944;6.932;2023-12-07T05:36:58;19.50;41.20
7341;DHT22;6870;50.944;6.932;2023-12-07T05:39:26;19.80;41.00
7341;DHT22;6870;50.944;6.932;2023-12-07T05:41:54;19.80;41.10
7341;DHT22;6870;50.944;6.932;2023-12-07T05:44:22;19.40;40.90
7341;DHT22;6870;50.944;6.932;2023-12-07T05:46:50;19.60;40.70
7341;DHT22;6870;50.944;6.932;2023-12-07T05:49:18;19.90;41.10
7341;DHT22;6870;50.944;6.932;2023-12-07T05:51:50;19.60;40.80
7341;DHT22;6870;50.944;6.932;2023-12-07T05:54:19;19.70;40.80
7341;DHT22;6870;50.944;6.932;2023-12-07T05:56:48;19.60;41.30
7341;DHT22;6870;50.944;6.932;2023-12-07T05:59:17;19.80;41.40
7341;DHT22;6870;50.944;6.932;2023-12-07T06:01:45;19.70;41.30
7341;DHT22;6870;50.944;6.932;2023-12-07T06:04:14;19.60;41.20
7341;DHT22;6870;50.944;6.932;2023-12-07T06:06:43;19.60;41.30
7341;DHT22;6870;50.944;6.932;2023-12-07T06:09:12;19.60;41.60
7341;DHT22;6870;50.944;6.932;2023-12-07T06:11:40;19.50;41.50
7341;DHT22;6870;50.944;6.932;2023-12-07T06:14:08;19.50;41.50
7341;DHT22;6870;50.944;6.932;2023-12-07T06:16:36;19.70;41.70
7341;DHT22;6870;50.944;6.932;2023-12-07T06:19:04;19.50;41.90
7341;DHT22;6870;50.944;6.932;2023-12-07T06:21:33;19.50;42.20
7341;DHT22;6870;50.944;6.932;2023-12-07T06:24:01;19.40;42.10
7341;DHT22;6870;50.944;6.932;2023-12-07T06:26:30;19.60;42.70
7341;DHT22;6870;50.944;6.932;2023-12-07T06:28:58;19.50;42.70
7341;DHT22;6870;50.944;6.932;2023-12-07T06:31:26;19.60;43.20
7341;DHT22;6870;50.944;6.932;2023-12-07T06:33:54;19.50;43.10
7341;DHT22;6870;50.944;6.932;2023-12-07T06:36:23;19.60;43.10
7341;DHT22;6870;50.944;6.932;2023-12-07T06:38:52;19.50;43.30
7341;DHT22;6870;50.944;6.932;2023-12-07T06:41:21;19.60;43.70
7341;DHT22;6870;50.944;6.932;2023-12-07T06:43:50;19.60;43.80
7341;DHT22;6870;50.944;6.932;2023-12-07T06:46:21;19.30;44.00
7341;DHT22;6870;50.944;6.932;2023-12-07T06:48:49;19.40;44.00
7341;DHT22;6870;50.944;6.932;2023-12-07T06:51:17;19.40;44.10
7341;DHT22;6870;50.944;6.932;2023-12-07T06:53:45;19.40;44.10
7341;DHT22;6870;50.944;6.932;2023-12-07T06:56:13;19.50;44.50
7341;DHT22;6870;50.944;6.932;2023-12-07T06:58:42;19.60;44.40
7341;DHT22;6870;50.944;6.932;2023-12-07T07:01:11;19.00;44.20
7341;DHT22;6870;50.944;6.932;2023-12-07T07:03:41;19.20;44.40
7341;DHT22;6870;50.944;6.932;2023-12-07T07:06:09;19.10;44.20
7341;DHT22;6870;50.944;6.932;2023-12-07T07:08:37;19.50;45.10
7341;DHT22;6870;50.944;6.932;2023-12-07T07:11:11;19.00;44.80
7341;DHT22;6870;50.944;6.932;2023-12-07T07:13:41;19.30;45.00
7341;DHT22;6870;50.944;6.932;2023-12-07T07:16:10;19.20;44.70
7341;DHT22;6870;50.944;6.932;2023-12-07T07:18:38;19.20;45.20
7341;DHT22;6870;50.944;6.932;2023-12-07T07:21:07;19.20;44.70
7341;DHT22;6870;50.944;6.932;2023-12-07T07:23:36;19.20;43.90
7341;DHT22;6870;50.944;6.932;2023-12-07T07:26:04;19.10;41.70
7341;DHT22;6870;50.944;6.932;2023-12-07T07:28:32;19.10;39.70
7341;DHT22;6870;50.944;6.932;2023-12-07T07:31:01;19.00;37.40
7341;DHT22;6870;50.944;6.932;2023-12-07T07:33:31;19.10;36.20
7341;DHT22;6870;50.944;6.932;2023-12-07T07:36:00;19.10;34.30
7341;DHT22;6870;50.944;6.932;2023-12-07T07:38:28;18.70;33.70
7341;DHT22;6870;50.944;6.932;2023-12-07T07:40:56;18.70;31.70
7341;DHT22;6870;50.944;6.932;2023-12-07T07:43:24;18.90;32.20
7341;DHT22;6870;50.944;6.932;2023-12-07T07:45:52;18.60;30.50
7341;DHT22;6870;50.944;6.932;2023-12-07T07:48:20;18.60;30.60
7341;DHT22;6870;50.944;6.932;2023-12-07T07:50:50;18.60;30.40
7341;DHT22;6870;50.944;6.932;2023-12-07T07:53:18;18.90;30.20
7341;DHT22;6870;50.944;6.932;2023-12-07T07:55:46;18.60;29.60
7341;DHT22;6870;50.944;6.932;2023-12-07T07:58:14;18.40;29.40
7341;DHT22;6870;50.944;6.932;2023-12-07T08:00:43;18.90;30.20
7341;DHT22;6870;50.944;6.932;2023-12-07T08:03:13;18.60;29.60
7341;DHT22;6870;50.944;6.932;2023-12-07T08:05:41;18.50;29.10
7341;DHT22;6870;50.944;6.932;2023-12-07T08:08:10;18.20;28.20
7341;DHT22;6870;50.944;6.932;2023-12-07T08:10:39;18.80;28.20
7341;DHT22;6870;50.944;6.932;2023-12-07T08:13:21;18.30;28.10
7341;DHT22;6870;50.944;6.932;2023-12-07T08:15:50;18.80;28.60
7341;DHT22;6870;50.944;6.932;2023-12-07T08:18:22;18.50;27.50
7341;DHT22;6870;50.944;6.932;2023-12-07T08:20:50;18.90;27.00
7341;DHT22;6870;50.944;6.932;2023-12-07T08:23:20;18.90;26.70
7341;DHT22;6870;50.944;6.932;2023-12-07T08:25:48;18.90;25.80
7341;DHT22;6870;50.944;6.932;2023-12-07T08:28:16;18.30;25.20
7341;DHT22;6870;50.944;6.932;2023-12-07T08:30:45;18.50;26.20
7341;DHT22;6870;50.944;6.932;2023-12-07T08:33:13;18.60;26.50
7341;DHT22;6870;50.944;6.932;2023-12-07T08:35:41;18.70;26.90
7341;DHT22;6870;50.944;6.932;2023-12-07T08:38:10;18.70;27.40
7341;DHT22;6870;50.944;6.932;2023-12-07T08:40:39;18.80;27.40
7341;DHT22;6870;50.944;6.932;2023-12-07T08:43:07;19.10;28.30
7341;DHT22;6870;50.944;6.932;2023-12-07T08:45:35;19.00;28.30
7341;DHT22;6870;50.944;6.932;2023-12-07T08:48:05;19.10;28.50
7341;DHT22;6870;50.944;6.932;2023-12-07T08:50:33;19.20;28.30
7341;DHT22;6870;50.944;6.932;2023-12-07T08:53:01;19.30;28.60
7341;DHT22;6870;50.944;6.932;2023-12-07T08:55:31;19.60;28.80
7341;DHT22;6870;50.944;6.932;2023-12-07T08:58:01;19.40;28.70
7341;DHT22;6870;50.944;6.932;2023-12-07T09:00:31;19.60;28.60
7341;DHT22;6870;50.944;6.932;2023-12-07T09:02:59;19.80;28.70
7341;DHT22;6870;50.944;6.932;2023-12-07T09:05:28;19.80;28.10
7341;DHT22;6870;50.944;6.932;2023-12-07T09:07:57;20.10;28.30
7341;DHT22;6870;50.944;6.932;2023-12-07T09:10:25;20.40;28.00
7341;DHT22;6870;50.944;6.932;2023-12-07T09:12:53;20.30;27.80
7341;DHT22;6870;50.944;6.932;2023-12-07T09:15:22;20.80;28.10
7341;DHT22;6870;50.944;6.932;2023-12-07T09:17:51;20.70;27.80
7341;DHT22;6870;50.944;6.932;2023-12-07T09:20:19;20.70;27.10
7341;DHT22;6870;50.944;6.932;2023-12-07T09:22:47;20.90;27.30
7341;DHT22;6870;50.944;6.932;2023-12-07T09:25:16;21.20;27.10
7341;DHT22;6870;50.944;6.932;2023-12-07T09:27:44;21.00;26.70
7341;DHT22;6870;50.944;6.932;2023-12-07T09:30:12;21.00;26.40
7341;DHT22;6870;50.944;6.932;2023-12-07T09:32:42;21.50;27.10
7341;DHT22;6870;50.944;6.932;2023-12-07T09:35:12;21.50;26.60
7341;DHT22;6870;50.944;6.932;2023-12-07T09:37:43;21.70;26.90
7341;DHT22;6870;50.944;6.932;2023-12-07T09:40:15;21.80;26.50
7341;DHT22;6870;50.944;6.932;2023-12-07T09:42:45;21.80;26.50
7341;DHT22;6870;50.944;6.932;2023-12-07T09:45:15;21.50;25.80
7341;DHT22;6870;50.944;6.932;2023-12-07T09:47:47;21.80;26.30
7341;DHT22;6870;50.944;6.932;2023-12-07T09:50:19;22.20;26.80
7341;DHT22;6870;50.944;6.932;2023-12-07T09:52:49;22.10;26.20
7341;DHT22;6870;50.944;6.932;2023-12-07T09:55:33;22.30;26.70
7341;DHT22;6870;50.944;6.932;2023-12-07T09:58:03;22.00;25.80
7341;DHT22;6870;50.944;6.932;2023-12-07T10:00:34;22.10;25.40
7341;DHT22;6870;50.944;6.932;2023-12-07T10:03:05;22.20;24.90
7341;DHT22;6870;50.944;6.932;2023-12-07T10:05:53;22.60;26.20
7341;DHT22;6870;50.944;6.932;2023-12-07T10:08:29;22.40;25.60
7341;DHT22;6870;50.944;6.932;2023-12-07T10:11:06;22.60;25.60
7341;DHT22;6870;50.944;6.932;2023-12-07T10:13:36;22.50;26.00
7341;DHT22;6870;50.944;6.932;2023-12-07T10:16:08;23.00;25.30
7341;DHT22;6870;50.944;6.932;2023-12-07T10:18:39;22.70;25.40
7341;DHT22;6870;50.944;6.932;2023-12-07T10:21:11;22.70;25.30
7341;DHT22;6870;50.944;6.932;2023-12-07T10:23:41;22.60;25.00
7341;DHT22;6870;50.944;6.932;2023-12-07T10:26:13;23.00;25.60
7341;DHT22;6870;50.944;6.932;2023-12-07T10:28:42;23.00;24.90
7341;DHT22;6870;50.944;6.932;2023-12-07T10:31:10;22.80;25.20
7341;DHT22;6870;50.944;6.932;2023-12-07T10:33:40;22.90;25.20
7341;DHT22;6870;50.944;6.932;2023-12-07T10:36:10;23.00;25.60
7341;DHT22;6870;50.944;6.932;2023-12-07T10:38:38;22.80;26.30
7341;DHT22;6870;50.944;6.932;2023-12-07T10:41:09;23.20;26.00
7341;DHT22;6870;50.944;6.932;2023-12-07T10:43:43;23.00;25.10
7341;DHT22;6870;50.944;6.932;2023-12-07T10:46:15;22.90;25.10
7341;DHT22;6870;50.944;6.932;2023-12-07T10:48:47;23.20;26.00
7341;DHT22;6870;50.944;6.932;2023-12-07T10:51:23;23.10;26.10
7341;DHT22;6870;50.944;6.932;2023-12-07T10:53:58;22.90;26.00
7341;DHT22;6870;50.944;6.932;2023-12-07T10:56:35;22.70;25.40
7341;DHT22;6870;50.944;6.932;2023-12-07T10:59:09;23.20;26.50
7341;DHT22;6870;50.944;6.932;2023-12-07T11:01:47;23.20;26.20
7341;DHT22;6870;50.944;6.932;2023-12-07T11:04:17;23.00;25.40
7341;DHT22;6870;50.944;6.932;2023-12-07T11:06:49;22.60;25.40
7341;DHT22;6870;50.944;6.932;2023-12-07T11:09:21;22.30;25.10
7341;DHT22;6870;50.944;6.932;2023-12-07T11:12:01;22.20;25.00
7341;DHT22;6870;50.944;6.932;2023-12-07T11:14:33;22.30;25.00
7341;DHT22;6870;50.944;6.932;2023-12-07T11:17:03;22.40;24.90
7341;DHT22;6870;50.944;6.932;2023-12-07T11:19:48;22.40;25.80
7341;DHT22;6870;50.944;6.932;2023-12-07T11:22:16;22.30;25.30
7341;DHT22;6870;50.944;6.932;2023-12-07T11:24:57;22.40;24.70
7341;DHT22;6870;50.944;6.932;2023-12-07T11:27:29;22.30;25.20
7341;DHT22;6870;50.944;6.932;2023-12-07T11:29:59;22.60;25.40
7341;DHT22;6870;50.944;6.932;2023-12-07T11:32:28;22.40;25.60
7341;DHT22;6870;50.944;6.932;2023-12-07T11:35:02;22.90;25.30
7341;DHT22;6870;50.944;6.932;2023-12-07T11:38:05;22.70;25.90
7341;DHT22;6870;50.944;6.932;2023-12-07T11:40:36;22.50;25.30
7341;DHT22;6870;50.944;6.932;2023-12-07T11:43:04;22.70;25.10
7341;DHT22;6870;50.944;6.932;2023-12-07T11:45:38;22.40;24.50
7341;DHT22;6870;50.944;6.932;2023-12-07T11:48:10;22.50;25.10
7341;DHT22;6870;50.944;6.932;2023-12-07T11:51:01;22.60;25.20
7341;DHT22;6870;50.944;6.932;2023-12-07T11:53:31;22.70;25.20
7341;DHT22;6870;50.944;6.932;2023-12-07T11:56:01;23.10;25.50
7341;DHT22;6870;50.944;6.932;2023-12-07T11:58:32;23.10;24.80
7341;DHT22;6870;50.944;6.932;2023-12-07T12:01:06;23.00;24.40
7341;DHT22;6870;50.944;6.932;2023-12-07T12:03:36;23.20;24.60
7341;DHT22;6870;50.944;6.932;2023-12-07T12:06:06;22.90;24.70
7341;DHT22;6870;50.944;6.932;2023-12-07T12:08:40;23.40;24.60
7341;DHT22;6870;50.944;6.932;2023-12-07T12:11:09;23.40;24.90
7341;DHT22;6870;50.944;6.932;2023-12-07T12:13:37;23.40;24.90
7341;DHT22;6870;50.944;6.932;2023-12-07T12:16:07;23.20;24.90
7341;DHT22;6870;50.944;6.932;2023-12-07T12:18:36;23.50;24.80
7341;DHT22;6870;50.944;6.932;2023-12-07T12:21:08;23.30;24.70
7341;DHT22;6870;50.944;6.932;2023-12-07T12:23:36;23.40;25.20
7341;DHT22;6870;50.944;6.932;2023-12-07T12:26:07;23.20;25.60
7341;DHT22;6870;50.944;6.932;2023-12-07T12:28:36;23.00;25.40
7341;DHT22;6870;50.944;6.932;2023-12-07T12:31:10;23.50;26.00
7341;DHT22;6870;50.944;6.932;2023-12-07T12:33:39;22.90;25.40
7341;DHT22;6870;50.944;6.932;2023-12-07T12:36:09;23.30;25.80
7341;DHT22;6870;50.944;6.932;2023-12-07T12:38:38;23.30;25.70
7341;DHT22;6870;50.944;6.932;2023-12-07T12:41:10;23.50;26.60
7341;DHT22;6870;50.944;6.932;2023-12-07T12:43:40;23.10;25.60
7341;DHT22;6870;50.944;6.932;2023-12-07T12:46:09;23.70;26.00
7341;DHT22;6870;50.944;6.932;2023-12-07T12:48:52;23.60;25.90
7341;DHT22;6870;50.944;6.932;2023-12-07T12:51:26;23.50;26.40
7341;DHT22;6870;50.944;6.932;2023-12-07T12:53:55;23.70;26.60
7341;DHT22;6870;50.944;6.932;2023-12-07T12:56:26;23.30;25.90
7341;DHT22;6870;50.944;6.932;2023-12-07T12:58:54;23.40;26.50
7341;DHT22;6870;50.944;6.932;2023-12-07T13:01:30;23.40;26.10
7341;DHT22;6870;50.944;6.932;2023-12-07T13:03:59;23.50;26.20
7341;DHT22;6870;50.944;6.932;2023-12-07T13:06:29;23.50;26.40
7341;DHT22;6870;50.944;6.932;2023-12-07T13:08:57;23.80;27.10
7341;DHT22;6870;50.944;6.932;2023-12-07T13:11:25;23.70;26.40
7341;DHT22;6870;50.944;6.932;2023-12-07T13:13:53;23.40;26.10
7341;DHT22;6870;50.944;6.932;2023-12-07T13:16:21;23.20;25.50
7341;DHT22;6870;50.944;6.932;2023-12-07T13:18:49;22.70;24.90
7341;DHT22;6870;50.944;6.932;2023-12-07T13:21:17;22.70;25.10
7341;DHT22;6870;50.944;6.932;2023-12-07T13:23:47;22.70;24.90
7341;DHT22;6870;50.944;6.932;2023-12-07T13:26:15;22.90;25.20
7341;DHT22;6870;50.944;6.932;2023-12-07T13:28:43;22.50;25.00
7341;DHT22;6870;50.944;6.932;2023-12-07T13:31:11;22.60;25.10
7341;DHT22;6870;50.944;6.932;2023-12-07T13:33:40;22.40;25.00
7341;DHT22;6870;50.944;6.932;2023-12-07T13:36:21;22.40;25.20
7341;DHT22;6870;50.944;6.932;2023-12-07T13:38:53;22.50;25.20
7341;DHT22;6870;50.944;6.932;2023-12-07T13:41:22;22.60;26.30
7341;DHT22;6870;50.944;6.932;2023-12-07T13:43:50;22.60;25.60
7341;DHT22;6870;50.944;6.932;2023-12-07T13:46:18;22.60;25.70
7341;DHT22;6870;50.944;6.932;2023-12-07T13:48:47;22.90;25.90
7341;DHT22;6870;50.944;6.932;2023-12-07T13:51:16;23.30;25.90
7341;DHT22;6870;50.944;6.932;2023-12-07T13:53:44;23.00;25.70
7341;DHT22;6870;50.944;6.932;2023-12-07T13:56:14;22.90;25.70
7341;DHT22;6870;50.944;6.932;2023-12-07T13:58:42;23.00;25.80
7341;DHT22;6870;50.944;6.932;2023-12-07T14:01:10;23.10;26.10
7341;DHT22;6870;50.944;6.932;2023-12-07T14:03:38;23.10;26.10
7341;DHT22;6870;50.944;6.932;2023-12-07T14:06:07;22.90;26.00
7341;DHT22;6870;50.944;6.932;2023-12-07T14:08:47;22.90;26.60
7341;DHT22;6870;50.944;6.932;2023-12-07T14:11:18;22.90;26.40
7341;DHT22;6870;50.944;6.932;2023-12-07T14:13:47;23.30;27.20
7341;DHT22;6870;50.944;6.932;2023-12-07T14:16:21;23.10;26.50
7341;DHT22;6870;50.944;6.932;2023-12-07T14:19:08;22.80;26.30
7341;DHT22;6870;50.944;6.932;2023-12-07T14:21:41;23.00;26.60
7341;DHT22;6870;50.944;6.932;2023-12-07T14:24:24;22.70;26.30
7341;DHT22;6870;50.944;6.932;2023-12-07T14:26:54;23.10;26.70
7341;DHT22;6870;50.944;6.932;2023-12-07T14:29:23;23.30;25.90
7341;DHT22;6870;50.944;6.932;2023-12-07T14:31:54;22.70;25.30
7341;DHT22;6870;50.944;6.932;2023-12-07T14:34:23;22.80;25.10
7341;DHT22;6870;50.944;6.932;2023-12-07T14:37:01;23.30;25.60
7341;DHT22;6870;50.944;6.932;2023-12-07T14:39:33;22.70;25.20
7341;DHT22;6870;50.944;6.932;2023-12-07T14:42:03;22.60;24.50
7341;DHT22;6870;50.944;6.932;2023-12-07T14:44:33;22.70;24.90
7341;DHT22;6870;50.944;6.932;2023-12-07T14:47:04;22.60;24.40
7341;DHT22;6870;50.944;6.932;2023-12-07T14:49:34;22.90;25.00
7341;DHT22;6870;50.944;6.932;2023-12-07T14:52:02;22.90;24.80
7341;DHT22;6870;50.944;6.932;2023-12-07T14:54:31;22.70;25.10
7341;DHT22;6870;50.944;6.932;2023-12-07T14:56:59;22.70;24.60
7341;DHT22;6870;50.944;6.932;2023-12-07T14:59:31;22.40;24.60
7341;DHT22;6870;50.944;6.932;2023-12-07T15:01:59;22.40;24.70
7341;DHT22;6870;50.944;6.932;2023-12-07T15:04:28;22.40;25.20
7341;DHT22;6870;50.944;6.932;2023-12-07T15:07:01;22.70;25.60
7341;DHT22;6870;50.944;6.932;2023-12-07T15:09:32;22.30;25.80
7341;DHT22;6870;50.944;6.932;2023-12-07T15:12:06;22.60;25.90
7341;DHT22;6870;50.944;6.932;2023-12-07T15:14:36;22.40;26.00
7341;DHT22;6870;50.944;6.932;2023-12-07T15:17:05;22.10;26.10
7341;DHT22;6870;50.944;6.932;2023-12-07T15:19:36;22.30;26.40
7341;DHT22;6870;50.944;6.932;2023-12-07T15:22:06;22.00;26.70
7341;DHT22;6870;50.944;6.932;2023-12-07T15:24:35;21.60;26.40
7341;DHT22;6870;50.944;6.932;2023-12-07T15:27:06;21.80;26.90
7341;DHT22;6870;50.944;6.932;2023-12-07T15:29:36;22.10;27.10
7341;DHT22;6870;50.944;6.932;2023-12-07T15:32:06;22.00;27.40
7341;DHT22;6870;50.944;6.932;2023-12-07T15:34:36;21.90;27.90
7341;DHT22;6870;50.944;6.932;2023-12-07T15:37:09;21.20;27.20
7341;DHT22;6870;50.944;6.932;2023-12-07T15:39:41;21.50;27.60
7341;DHT22;6870;50.944;6.932;2023-12-07T15:42:13;21.40;27.80
7341;DHT22;6870;50.944;6.932;2023-12-07T15:44:43;21.10;27.50
7341;DHT22;6870;50.944;6.932;2023-12-07T15:47:11;21.10;28.40
7341;DHT22;6870;50.944;6.932;2023-12-07T15:49:40;20.80;28.20
7341;DHT22;6870;50.944;6.932;2023-12-07T15:52:09;21.20;29.00
7341;DHT22;6870;50.944;6.932;2023-12-07T15:54:37;21.10;28.50
7341;DHT22;6870;50.944;6.932;2023-12-07T15:57:08;21.00;29.00
7341;DHT22;6870;50.944;6.932;2023-12-07T15:59:38;20.90;28.70
7341;DHT22;6870;50.944;6.932;2023-12-07T16:02:09;21.00;29.00
7341;DHT22;6870;50.944;6.932;2023-12-07T16:04:38;21.00;29.10
7341;DHT22;6870;50.944;6.932;2023-12-07T16:07:06;20.70;29.00
7341;DHT22;6870;50.944;6.932;2023-12-07T16:09:37;20.80;29.30
7341;DHT22;6870;50.944;6.932;2023-12-07T16:12:07;20.80;29.30
7341;DHT22;6870;50.944;6.932;2023-12-07T16:14:37;20.80;29.40
7341;DHT22;6870;50.944;6.932;2023-12-07T16:17:07;20.80;29.40
7341;DHT22;6870;50.944;6.932;2023-12-07T16:19:37;20.70;29.40